MSC Armonia — H8EW — position and weather

sailwx.info

Track history (hours):
 
Tides and Currents Weather Stations Pressure Air Temp Water Temp Dewpoint Dewpoint Depression Visibility Wind Speed Wind Dir Waves Ship Positions

MSC Armonia

Operator: Mediterranean Shipping Company

Last reported at 2019-Jul-15 23:41 UTC. Time now 2019-Jul-19 18:34 UTC.
Position N 25°37' W 079°55'.

Length 275 m; draft 6.8 m.

Type: Ship. MMSI: 357281000.

Date/timePositionNaut miles runAvg speedWind from/ knotsBaromVisibWave heightAir tempDewpointWater temp
2019-Jul-15 23:41N 25°37' W 079°55'312.6
2019-Jul-15 23:26N 25°40' W 079°58'613.0
2019-Jul-15 23:00N 25°44' W 080°02'5 9.4
2019-Jul-15 22:31N 25°45' W 080°07'4 7.0
2019-Jul-15 22:00N 25°47' W 080°10'0 0.0
2019-Jul-15 21:27N 25°47' W 080°10'0 0.0
2019-Jul-15 21:00N 25°47' W 080°10'0 0.0
2019-Jul-15 20:27N 25°47' W 080°10'0 0.0
2019-Jul-15 19:57N 25°47' W 080°10'0 0.0
2019-Jul-15 19:27N 25°47' W 080°10'0 0.0
2019-Jul-15 19:00N 25°47' W 080°10'0 0.0
2019-Jul-15 18:30N 25°47' W 080°10'0 0.0
2019-Jul-15 18:00N 25°47' W 080°10'0 0.0
2019-Jul-15 17:30N 25°47' W 080°10'0 0.0
2019-Jul-15 17:00N 25°47' W 080°10'0 0.0
2019-Jul-15 16:30N 25°47' W 080°10'0 0.0
2019-Jul-15 16:00N 25°47' W 080°10'0 0.0
2019-Jul-15 15:30N 25°47' W 080°10'0 0.0
2019-Jul-15 15:00N 25°47' W 080°10'0 0.0
2019-Jul-15 14:30N 25°47' W 080°10'0 0.0
2019-Jul-15 14:00N 25°47' W 080°10'0 0.0
2019-Jul-15 13:30N 25°47' W 080°10'0 0.0
2019-Jul-15 13:00N 25°47' W 080°10'0 0.0
2019-Jul-15 12:21N 25°47' W 080°10'0 0.0
2019-Jul-15 11:51N 25°47' W 080°10'0 0.0
2019-Jul-15 11:21N 25°47' W 080°10'0 0.0
2019-Jul-15 10:54N 25°47' W 080°10'0 0.0
2019-Jul-15 10:24N 25°47' W 080°10'0 0.0
2019-Jul-15 10:00N 25°47' W 080°10'0 0.7
2019-Jul-15 09:30N 25°47' W 080°10'4 8.8
2019-Jul-15 09:00N 25°46' W 080°05'4 8.6
2019-Jul-15 08:30N 25°44' W 080°01'612.7
2019-Jul-15 08:00N 25°38' W 079°60'714.5
2019-Jul-15 07:30N 25°30' W 079°60'  
2019-Jul-13 01:08N 20°29' W 087°00'214.1
2019-Jul-13 01:00N 20°30' W 086°59'1 2.8
2019-Jul-13 00:28N 20°31' W 086°57'0 0.0
2019-Jul-12 23:58N 20°31' W 086°57'0 0.0
2019-Jul-12 23:25N 20°31' W 086°57'0 0.0
2019-Jul-12 22:55N 20°31' W 086°57'0 0.0
2019-Jul-12 22:25N 20°31' W 086°57'0 0.0
2019-Jul-12 21:58N 20°31' W 086°57'0 0.0
2019-Jul-12 21:28N 20°31' W 086°57'0 0.0
2019-Jul-12 20:58N 20°31' W 086°57'  
2019-Jul-08 23:41N 25°41' W 079°55'314.5
2019-Jul-08 23:30N 25°42' W 079°57'714.0
2019-Jul-08 23:01N 25°46' W 080°04'510.0
2019-Jul-08 22:31N 25°46' W 080°09'1 2.3
2019-Jul-08 22:01N 25°47' W 080°11'0 0.0
2019-Jul-08 21:29N 25°47' W 080°11'0 0.0
2019-Jul-08 20:59N 25°47' W 080°11'0 0.0
2019-Jul-08 20:29N 25°47' W 080°11'0 0.0
2019-Jul-08 19:59N 25°47' W 080°11'0 0.0
2019-Jul-08 19:29N 25°47' W 080°11'0 0.0
2019-Jul-08 18:59N 25°47' W 080°11'0 0.0
2019-Jul-08 18:29N 25°47' W 080°11'0 0.0
2019-Jul-08 17:59N 25°47' W 080°11'0 0.0
2019-Jul-08 17:29N 25°47' W 080°11'0 0.0
2019-Jul-08 16:59N 25°47' W 080°11'0 0.0
2019-Jul-08 16:29N 25°47' W 080°11'0 0.0
2019-Jul-08 15:59N 25°47' W 080°11'0 0.0
2019-Jul-08 15:26N 25°47' W 080°11'0 0.0
2019-Jul-08 14:56N 25°47' W 080°11'0 0.0
2019-Jul-08 14:26N 25°47' W 080°11'0 0.0
2019-Jul-08 13:59N 25°47' W 080°11'0 0.0
2019-Jul-08 13:29N 25°47' W 080°11'0 0.0
2019-Jul-08 12:59N 25°47' W 080°11'0 0.0
2019-Jul-08 12:29N 25°47' W 080°11'0 0.0
2019-Jul-08 11:59N 25°47' W 080°11'0 0.0
2019-Jul-08 11:29N 25°47' W 080°11'0 0.0
2019-Jul-08 10:59N 25°47' W 080°11'0 0.0
2019-Jul-08 10:29N 25°47' W 080°11'0 0.0
2019-Jul-08 09:56N 25°47' W 080°11'1 1.4
2019-Jul-08 09:31N 25°47' W 080°10'5 9.2
2019-Jul-08 09:01N 25°46' W 080°05'510.0
2019-Jul-08 08:30N 25°45' W 079°59'612.7
2019-Jul-08 08:00N 25°39' W 079°57'  
2019-Jul-06 00:52N 20°32' W 086°57'1 2.4
2019-Jul-06 00:25N 20°31' W 086°57'0 0.0
2019-Jul-05 23:58N 20°31' W 086°57'  
Track history (hours):
 
Tides and Currents Weather Stations Pressure Air Temp Water Temp Dewpoint Dewpoint Depression Visibility Wind Speed Wind Dir Waves Ship Positions

MSC Armonia

Operator: Mediterranean Shipping Company

Last reported at 2019-Jul-15 23:41 UTC. Time now 2019-Jul-19 18:34 UTC.
Position N 25°37' W 079°55'.

Length 275 m; draft 6.8 m.

Type: Ship. MMSI: 357281000.

Date/timePositionNaut miles runAvg speedWind from/ knotsBaromVisibWave heightAir tempDewpointWater temp
2019-Jul-15 23:41N 25°37' W 079°55'312.6
2019-Jul-15 23:26N 25°40' W 079°58'613.0
2019-Jul-15 23:00N 25°44' W 080°02'5 9.4
2019-Jul-15 22:31N 25°45' W 080°07'4 7.0
2019-Jul-15 22:00N 25°47' W 080°10'0 0.0
2019-Jul-15 21:27N 25°47' W 080°10'0 0.0
2019-Jul-15 21:00N 25°47' W 080°10'0 0.0
2019-Jul-15 20:27N 25°47' W 080°10'0 0.0
2019-Jul-15 19:57N 25°47' W 080°10'0 0.0
2019-Jul-15 19:27N 25°47' W 080°10'0 0.0
2019-Jul-15 19:00N 25°47' W 080°10'0 0.0
2019-Jul-15 18:30N 25°47' W 080°10'0 0.0
2019-Jul-15 18:00N 25°47' W 080°10'0 0.0
2019-Jul-15 17:30N 25°47' W 080°10'0 0.0
2019-Jul-15 17:00N 25°47' W 080°10'0 0.0
2019-Jul-15 16:30N 25°47' W 080°10'0 0.0
2019-Jul-15 16:00N 25°47' W 080°10'0 0.0
2019-Jul-15 15:30N 25°47' W 080°10'0 0.0
2019-Jul-15 15:00N 25°47' W 080°10'0 0.0
2019-Jul-15 14:30N 25°47' W 080°10'0 0.0
2019-Jul-15 14:00N 25°47' W 080°10'0 0.0
2019-Jul-15 13:30N 25°47' W 080°10'0 0.0
2019-Jul-15 13:00N 25°47' W 080°10'0 0.0
2019-Jul-15 12:21N 25°47' W 080°10'0 0.0
2019-Jul-15 11:51N 25°47' W 080°10'0 0.0
2019-Jul-15 11:21N 25°47' W 080°10'0 0.0
2019-Jul-15 10:54N 25°47' W 080°10'0 0.0
2019-Jul-15 10:24N 25°47' W 080°10'0 0.0
2019-Jul-15 10:00N 25°47' W 080°10'0 0.7
2019-Jul-15 09:30N 25°47' W 080°10'4 8.8
2019-Jul-15 09:00N 25°46' W 080°05'4 8.6
2019-Jul-15 08:30N 25°44' W 080°01'612.7
2019-Jul-15 08:00N 25°38' W 079°60'714.5
2019-Jul-15 07:30N 25°30' W 079°60'  
2019-Jul-13 01:08N 20°29' W 087°00'214.1
2019-Jul-13 01:00N 20°30' W 086°59'1 2.8
2019-Jul-13 00:28N 20°31' W 086°57'0 0.0
2019-Jul-12 23:58N 20°31' W 086°57'0 0.0
2019-Jul-12 23:25N 20°31' W 086°57'0 0.0
2019-Jul-12 22:55N 20°31' W 086°57'0 0.0
2019-Jul-12 22:25N 20°31' W 086°57'0 0.0
2019-Jul-12 21:58N 20°31' W 086°57'0 0.0
2019-Jul-12 21:28N 20°31' W 086°57'0 0.0
2019-Jul-12 20:58N 20°31' W 086°57'  
2019-Jul-08 23:41N 25°41' W 079°55'314.5
2019-Jul-08 23:30N 25°42' W 079°57'714.0
2019-Jul-08 23:01N 25°46' W 080°04'510.0
2019-Jul-08 22:31N 25°46' W 080°09'1 2.3
2019-Jul-08 22:01N 25°47' W 080°11'0 0.0
2019-Jul-08 21:29N 25°47' W 080°11'0 0.0
2019-Jul-08 20:59N 25°47' W 080°11'0 0.0
2019-Jul-08 20:29N 25°47' W 080°11'0 0.0
2019-Jul-08 19:59N 25°47' W 080°11'0 0.0
2019-Jul-08 19:29N 25°47' W 080°11'0 0.0
2019-Jul-08 18:59N 25°47' W 080°11'0 0.0
2019-Jul-08 18:29N 25°47' W 080°11'0 0.0
2019-Jul-08 17:59N 25°47' W 080°11'0 0.0
2019-Jul-08 17:29N 25°47' W 080°11'0 0.0
2019-Jul-08 16:59N 25°47' W 080°11'0 0.0
2019-Jul-08 16:29N 25°47' W 080°11'0 0.0
2019-Jul-08 15:59N 25°47' W 080°11'0 0.0
2019-Jul-08 15:26N 25°47' W 080°11'0 0.0
2019-Jul-08 14:56N 25°47' W 080°11'0 0.0
2019-Jul-08 14:26N 25°47' W 080°11'0 0.0
2019-Jul-08 13:59N 25°47' W 080°11'0 0.0
2019-Jul-08 13:29N 25°47' W 080°11'0 0.0
2019-Jul-08 12:59N 25°47' W 080°11'0 0.0
2019-Jul-08 12:29N 25°47' W 080°11'0 0.0
2019-Jul-08 11:59N 25°47' W 080°11'0 0.0
2019-Jul-08 11:29N 25°47' W 080°11'0 0.0
2019-Jul-08 10:59N 25°47' W 080°11'0 0.0
2019-Jul-08 10:29N 25°47' W 080°11'0 0.0
2019-Jul-08 09:56N 25°47' W 080°11'1 1.4
2019-Jul-08 09:31N 25°47' W 080°10'5 9.2
2019-Jul-08 09:01N 25°46' W 080°05'510.0
2019-Jul-08 08:30N 25°45' W 079°59'612.7
2019-Jul-08 08:00N 25°39' W 079°57'  
2019-Jul-06 00:52N 20°32' W 086°57'1 2.4
2019-Jul-06 00:25N 20°31' W 086°57'0 0.0
2019-Jul-05 23:58N 20°31' W 086°57'  

Dump ship's entire track history